Wednesday, August 15, 2018, 12:51 AM EDT
Back to Local

KWST, Westerly State Airport

Location: Westerly, RI, United States Lat: 41.35
Local Time: 12:51 AM EDT ( 4:51 GMT) Lon: -71.8
Time Zone: US/Eastern Elev: 82 ft

Show me the last for .
Show Decoded

2018-08-14 23:53 METAR KWST 150353Z AUTO 23006KT 10SM CLR 23/21 A2985 RMK AO2 SLP108 T02330206 =
2018-08-14 22:53 METAR KWST 150253Z AUTO 24005KT 10SM CLR 24/21 A2985 RMK AO2 SLP107 T02390206
                 58002 =
2018-08-14 21:53 METAR KWST 150153Z AUTO 18005KT 10SM FEW019 24/22 A2985 RMK AO2 SLP107 T02390222
                 =
2018-08-14 20:53 METAR KWST 150053Z AUTO 19006KT 10SM CLR 24/22 A2986 RMK AO2 SLP111 T02390222 =
2018-08-14 19:53 METAR KWST 142353Z AUTO 20009KT 10SM CLR 25/22 A2986 RMK AO2 SLP109 T02500222
                 10283 20250 51006 =
2018-08-14 18:53 METAR KWST 142253Z AUTO 20010KT 10SM CLR 26/22 A2985 RMK AO2 SLP107 T02560222 =
2018-08-14 17:53 METAR KWST 142153Z AUTO 20010KT 10SM CLR 27/22 A2985 RMK AO2 SLP107 T02670222 =
2018-08-14 16:53 METAR KWST 142053Z AUTO 20011G17KT 10SM CLR 28/22 A2984 RMK AO2 SLP104 T02780222
                 56014 =
2018-08-14 15:53 METAR KWST 141953Z AUTO 17009KT 10SM CLR 28/23 A2985 RMK AO2 SLP108 T02780233 =
2018-08-14 14:53 METAR KWST 141853Z AUTO 17010KT 10SM CLR 28/24 A2987 RMK AO2 SLP113 T02830239 =
2018-08-14 13:53 METAR KWST 141753Z AUTO 18010KT 10SM CLR 28/23 A2988 RMK AO2 SLP117 T02780233
                 10283 20239 58011 =
2018-08-14 12:53 METAR KWST 141653Z AUTO 16010KT 10SM CLR 28/24 A2989 RMK AO2 SLP122 T02780239 =
2018-08-14 11:53 METAR KWST 141553Z AUTO 18008KT 10SM SCT016 27/24 A2991 RMK AO2 SLP127 T02720239
                 =
2018-08-14 10:53 METAR KWST 141453Z AUTO 17007KT 10SM SCT060 27/24 A2991 RMK AO2 SLP128 T02720244
                 55003 =
2018-08-14 10:00 METAR KWST 141400Z AUTO 17009KT 10SM FEW013 27/24 A2990 RMK AO2 T02720244 =
2018-08-14 09:53 METAR KWST 141353Z AUTO 19006KT 10SM SCT013 BKN020 27/24 A2990 RMK AO2 SLP125
                 T02670244 =
2018-08-14 09:43 METAR KWST 141343Z AUTO 19005KT 10SM BKN013 BKN020 26/24 A2991 RMK AO2 T02610244
                 =
2018-08-14 09:33 METAR KWST 141333Z AUTO 18006KT 9SM BKN015 OVC023 26/24 A2991 RMK AO2 T02560244
                 =
2018-08-14 09:21 METAR KWST 141321Z AUTO 17005KT 9SM BKN013 BKN019 26/24 A2991 RMK AO2 T02560244
                 =
2018-08-14 08:53 METAR KWST 141253Z AUTO 18006KT 8SM FEW014 BKN021 BKN028 25/24 A2991 RMK AO2
                 SLP128 T02500244 =
2018-08-14 08:13 METAR KWST 141213Z AUTO 15004KT 5SM BR SCT002 SCT015 24/24 A2991 RMK AO2
                 T02440244 =
2018-08-14 07:53 METAR KWST 141153Z AUTO 14006KT 3SM BR BKN002 24/24 A2992 RMK AO2 SLP131 70008
                 T02390239 10244 20233 53003 =
2018-08-14 07:51 METAR KWST 141151Z AUTO 15005KT 3SM BR OVC002 24/24 A2992 RMK AO2 =
2018-08-14 07:13 METAR KWST 141113Z AUTO 14004KT 4SM BR BKN003 OVC007 24/24 A2991 RMK AO2 CIG
                 002V006 T02390239 =
2018-08-14 06:53 METAR KWST 141053Z AUTO 17003KT 3SM BR BKN002 OVC006 24/24 A2991 RMK AO2 SLP128
                 T02390239 =
2018-08-14 06:38 METAR KWST 141038Z AUTO 13004KT 1 1/4SM BR BKN002 OVC006 24/24 A2991 RMK AO2
                 T02390239 =
2018-08-14 06:31 METAR KWST 141031Z AUTO 14004KT 3/4SM BR BKN004 OVC017 24/24 A2991 RMK AO2
                 T02390239 =
2018-08-14 06:07 METAR KWST 141007Z AUTO 00000KT 1/4SM FG VV003 23/23 A2991 RMK AO2 T02330233 =
2018-08-14 05:53 METAR KWST 140953Z AUTO 00000KT 1/2SM FG VV002 23/23 A2990 RMK AO2 SLP126
                 T02330233 =
2018-08-14 05:13 METAR KWST 140913Z AUTO 00000KT 1/2SM FG VV002 23/23 A2990 RMK AO2 T02330233 =
2018-08-14 04:53 METAR KWST 140853Z AUTO 00000KT 1/4SM FG VV002 23/23 A2990 RMK AO2 SLP124
                 T02330233 55007 =
2018-08-14 03:53 METAR KWST 140753Z AUTO 00000KT 1/4SM FG VV001 23/23 A2989 RMK AO2 SLP122
                 T02330233 =
2018-08-14 03:20 METAR KWST 140720Z AUTO 00000KT 1/4SM FG VV002 23/23 A2990 RMK AO2 T02330233 =
2018-08-14 03:13 METAR KWST 140713Z AUTO 00000KT 1/2SM FG VV002 23/23 A2990 RMK AO2 T02330233 =
2018-08-14 03:04 METAR KWST 140704Z AUTO 00000KT 3/4SM BR VV003 23/23 A2990 RMK AO2 T02330233 =
2018-08-14 02:53 METAR KWST 140653Z AUTO 12003KT 1 1/4SM BR OVC002 23/23 A2990 RMK AO2 SLP125
                 T02330233 =
2018-08-14 02:50 METAR KWST 140650Z AUTO 00000KT 1 1/4SM BR OVC002 23/23 A2990 RMK AO2 =
2018-08-14 02:34 METAR KWST 140634Z AUTO 00000KT 3/4SM BR VV003 23/23 A2991 RMK AO2 T02330233 =
2018-08-14 02:27 METAR KWST 140627Z AUTO 00000KT 3/4SM BR VV002 23/23 A2991 RMK AO2 T02330233 =
2018-08-14 02:13 METAR KWST 140613Z AUTO 00000KT 1 3/4SM BR BKN002 BKN009 23/23 A2991 RMK AO2
                 T02330233 =
2018-08-14 02:08 METAR KWST 140608Z AUTO 00000KT 4SM BR BKN002 BKN009 23/23 A2991 RMK AO2
                 T02330233 =
2018-08-14 01:53 METAR KWST 140553Z AUTO 00000KT 4SM BR SCT002 BKN011 23/23 A2992 RMK AO2 SLP131
                 60002 T02330233 10250 20228 58003 =
2018-08-14 01:49 METAR KWST 140549Z AUTO 00000KT 5SM BR SCT003 SCT011 23/23 A2992 RMK AO2 =
2018-08-14 01:26 METAR KWST 140526Z AUTO 00000KT 6SM BR SCT015 24/24 A2992 RMK AO2 T02390239 =
2018-08-14 01:12 METAR KWST 140512Z AUTO 18003KT 7SM BKN014 BKN019 BKN026 24/24 A2993 RMK AO2
                 T02390239 =
2018-08-14 00:57 METAR KWST 140457Z AUTO 19004KT 7SM SCT012 BKN018 BKN026 24/24 A2993 RMK AO2
                 T02390239 =
2018-08-14 00:53 METAR KWST 140453Z AUTO 17005KT 7SM BKN012 BKN018 BKN026 24/24 A2993 RMK AO2
                 SLP134 T02440244 402500217 =

Support USWX by starting your Amazon purchase here.